Time;durP1;ratioP1;P1;durP2;ratioP2;P2;SDS_P1;SDS_P2;PMS_P1;PMS_P2;Temp;Humidity;BMP_temperature;BMP_pressure;BME280_temperature;BME280_humidity;BME280_pressure;Samples;Min_cycle;Max_cycle;Signal;HPM_P1;HPM_P2
2024/01/04 00:01:18;;;;;;;4.18;1.83;;;;;;;;;;5051893;28;20552;-60
2024/01/04 00:03:44;;;;;;;1.63;1.25;;;;;;;;;;5048477;28;20066;-60
2024/01/04 00:06:09;;;;;;;1.85;1.17;;;;;;;;;;5042734;28;20071;-60
2024/01/04 00:08:35;;;;;;;2.05;1.40;;;;;;;;;;5053344;28;20032;-60
2024/01/04 00:11:07;;;;;;;3.58;2.00;;;;;;;;;;5054605;28;20425;-58
2024/01/04 00:13:33;;;;;;;4.05;1.98;;;;;;;;;;5052214;28;20033;-59
2024/01/04 00:15:58;;;;;;;3.20;2.10;;;;;;;;;;5052308;28;20033;-59
2024/01/04 00:18:24;;;;;;;3.83;2.30;;;;;;;;;;5052654;28;20035;-58
2024/01/04 00:20:50;;;;;;;3.60;2.03;;;;;;;;;;5052318;28;20425;-59
2024/01/04 00:23:15;;;;;;;4.57;2.03;;;;;;;;;;5052965;28;20118;-60
2024/01/04 00:25:41;;;;;;;2.80;1.80;;;;;;;;;;5052665;28;20393;-60
2024/01/04 00:28:07;;;;;;;2.67;1.85;;;;;;;;;;5052398;28;20385;-58
2024/01/04 00:30:32;;;;;;;5.70;2.53;;;;;;;;;;5051707;28;20037;-59
2024/01/04 00:32:57;;;;;;;3.63;1.83;;;;;;;;;;5053516;28;20029;-58
2024/01/04 00:35:23;;;;;;;6.43;2.20;;;;;;;;;;5047962;28;20397;-59
2024/01/04 00:37:49;;;;;;;4.00;2.05;;;;;;;;;;5043661;28;20051;-59
2024/01/04 00:40:15;;;;;;;3.38;2.17;;;;;;;;;;5051440;28;20458;-59
2024/01/04 00:42:40;;;;;;;5.43;2.58;;;;;;;;;;5050241;28;20032;-59
2024/01/04 00:45:06;;;;;;;6.38;2.20;;;;;;;;;;5052645;28;20072;-58
2024/01/04 00:47:31;;;;;;;4.28;2.38;;;;;;;;;;5052833;28;20039;-59
2024/01/04 00:49:57;;;;;;;12.32;3.22;;;;;;;;;;5052238;28;20040;-57
2024/01/04 00:52:22;;;;;;;5.05;2.85;;;;;;;;;;5051802;28;20025;-59
2024/01/04 00:54:48;;;;;;;6.30;3.13;;;;;;;;;;5032836;28;20079;-58
2024/01/04 00:57:13;;;;;;;6.30;3.65;;;;;;;;;;5051808;28;20033;-59
2024/01/04 00:59:38;;;;;;;6.15;4.10;;;;;;;;;;5052621;28;20025;-59
2024/01/04 01:02:04;;;;;;;8.38;3.58;;;;;;;;;;5052804;28;20095;-58
2024/01/04 01:04:29;;;;;;;6.93;4.07;;;;;;;;;;5050680;28;20120;-58
2024/01/04 01:06:55;;;;;;;7.82;4.47;;;;;;;;;;5035097;28;20026;-58
2024/01/04 01:09:20;;;;;;;7.22;4.18;;;;;;;;;;5041222;28;20083;-58
2024/01/04 01:11:46;;;;;;;7.65;3.92;;;;;;;;;;5049290;28;20040;-58
2024/01/04 01:14:11;;;;;;;6.40;4.15;;;;;;;;;;5052115;28;20071;-58
2024/01/04 01:16:37;;;;;;;9.75;4.70;;;;;;;;;;5051846;28;20032;-59
2024/01/04 01:19:02;;;;;;;8.23;4.47;;;;;;;;;;5050573;28;20473;-58
2024/01/04 01:21:28;;;;;;;9.35;4.00;;;;;;;;;;5052261;28;20047;-58
2024/01/04 01:23:53;;;;;;;7.72;3.65;;;;;;;;;;5050162;28;20124;-59
2024/01/04 01:26:19;;;;;;;9.88;4.88;;;;;;;;;;5052491;28;20492;-59
2024/01/04 01:28:44;;;;;;;10.48;4.35;;;;;;;;;;5050775;28;20037;-59
2024/01/04 01:31:11;;;;;;;12.82;5.60;;;;;;;;;;5050277;28;20030;-58
2024/01/04 01:33:36;;;;;;;10.20;4.60;;;;;;;;;;5049356;28;20044;-58
2024/01/04 01:36:02;;;;;;;7.82;4.38;;;;;;;;;;5050225;28;20029;-58
2024/01/04 01:38:28;;;;;;;12.43;6.25;;;;;;;;;;5050996;28;20033;-57
2024/01/04 01:40:53;;;;;;;12.07;6.10;;;;;;;;;;5052058;28;20036;-58
2024/01/04 01:43:19;;;;;;;11.43;6.35;;;;;;;;;;5050136;28;20031;-58
2024/01/04 01:45:45;;;;;;;9.23;6.03;;;;;;;;;;5050614;28;20385;-57
2024/01/04 01:48:13;;;;;;;11.63;5.78;;;;;;;;;;5051234;28;20059;-58
2024/01/04 01:50:39;;;;;;;11.07;6.03;;;;;;;;;;5030457;28;20036;-58
2024/01/04 01:53:05;;;;;;;13.23;6.07;;;;;;;;;;5051144;28;20036;-58
2024/01/04 01:55:30;;;;;;;10.10;6.53;;;;;;;;;;5051076;28;20542;-59
2024/01/04 01:57:57;;;;;;;12.63;6.30;;;;;;;;;;5051895;28;20702;-59
2024/01/04 02:00:23;;;;;;;9.70;5.38;;;;;;;;;;5017040;28;20120;-58
2024/01/04 02:02:49;;;;;;;9.40;4.80;;;;;;;;;;5049955;28;20100;-57
2024/01/04 02:05:15;;;;;;;8.00;4.72;;;;;;;;;;5045238;28;20026;-57
2024/01/04 02:07:43;;;;;;;11.40;5.05;;;;;;;;;;5049605;28;20048;-56
2024/01/04 02:10:08;;;;;;;10.98;5.10;;;;;;;;;;5051182;28;20059;-58
2024/01/04 02:12:34;;;;;;;10.43;5.25;;;;;;;;;;5037872;28;20037;-57
2024/01/04 02:14:59;;;;;;;10.23;5.38;;;;;;;;;;5048061;28;20245;-57
2024/01/04 02:17:25;;;;;;;11.52;4.90;;;;;;;;;;5039055;28;20032;-57
2024/01/04 02:19:52;;;;;;;8.57;4.28;;;;;;;;;;5048913;28;20385;-55
2024/01/04 02:22:17;;;;;;;7.03;3.10;;;;;;;;;;5050373;28;20111;-57
2024/01/04 02:24:43;;;;;;;6.68;3.03;;;;;;;;;;5050141;28;20738;-58
2024/01/04 02:27:09;;;;;;;10.00;4.78;;;;;;;;;;5049805;28;20074;-57
2024/01/04 02:29:34;;;;;;;9.20;3.90;;;;;;;;;;5040785;28;20120;-56
2024/01/04 02:32:00;;;;;;;6.65;3.50;;;;;;;;;;5046771;28;20036;-57
2024/01/04 02:34:25;;;;;;;5.80;3.30;;;;;;;;;;5039462;28;20082;-57
2024/01/04 02:36:51;;;;;;;8.38;3.40;;;;;;;;;;5030068;28;20393;-58
2024/01/04 02:39:16;;;;;;;7.25;3.40;;;;;;;;;;5050904;28;20466;-59
2024/01/04 02:41:42;;;;;;;5.28;2.50;;;;;;;;;;5050738;28;20503;-59
2024/01/04 02:44:07;;;;;;;3.78;2.38;;;;;;;;;;5050700;28;20449;-59
2024/01/04 02:46:33;;;;;;;6.10;2.47;;;;;;;;;;5048641;28;20037;-58
2024/01/04 02:48:58;;;;;;;7.80;3.50;;;;;;;;;;5048524;28;20041;-57
2024/01/04 02:51:24;;;;;;;6.43;3.10;;;;;;;;;;5051270;28;20057;-57
2024/01/04 02:53:49;;;;;;;5.65;2.72;;;;;;;;;;5049143;28;20048;-53
2024/01/04 02:56:14;;;;;;;6.03;3.03;;;;;;;;;;5051651;28;20480;-57
2024/01/04 02:58:40;;;;;;;6.13;2.20;;;;;;;;;;5049923;28;20098;-58
2024/01/04 03:01:05;;;;;;;6.30;2.65;;;;;;;;;;5051236;28;20130;-56
2024/01/04 03:03:30;;;;;;;9.68;3.40;;;;;;;;;;5048354;28;20044;-55
2024/01/04 03:05:56;;;;;;;8.15;3.00;;;;;;;;;;5041243;28;20048;-60
2024/01/04 03:08:21;;;;;;;9.65;3.10;;;;;;;;;;5051390;28;20025;-58
2024/01/04 03:10:47;;;;;;;7.03;3.10;;;;;;;;;;5031552;28;20036;-57
2024/01/04 03:13:12;;;;;;;8.55;3.22;;;;;;;;;;5040914;28;20095;-58
2024/01/04 03:15:37;;;;;;;8.68;4.15;;;;;;;;;;5050849;28;20033;-58
2024/01/04 03:18:03;;;;;;;8.68;4.32;;;;;;;;;;5049210;28;20940;-58
2024/01/04 03:20:28;;;;;;;9.70;4.35;;;;;;;;;;5049360;28;20112;-58
2024/01/04 03:22:54;;;;;;;10.75;4.35;;;;;;;;;;5048831;28;20029;-58
2024/01/04 03:25:19;;;;;;;13.32;5.05;;;;;;;;;;5050575;28;20057;-57
2024/01/04 03:27:45;;;;;;;9.60;4.88;;;;;;;;;;5050490;28;20064;-60
2024/01/04 03:30:10;;;;;;;11.43;5.38;;;;;;;;;;5050227;28;20469;-58
2024/01/04 03:32:36;;;;;;;11.93;5.20;;;;;;;;;;5051176;28;20044;-58
2024/01/04 03:35:01;;;;;;;14.98;5.00;;;;;;;;;;5048058;28;20033;-60
2024/01/04 03:37:27;;;;;;;9.93;4.30;;;;;;;;;;5049292;28;20037;-60
2024/01/04 03:39:53;;;;;;;6.22;3.78;;;;;;;;;;5049368;28;20040;-59
2024/01/04 03:42:18;;;;;;;11.20;3.95;;;;;;;;;;5049590;28;20040;-59
2024/01/04 03:44:44;;;;;;;9.20;4.15;;;;;;;;;;5050640;28;20036;-59
2024/01/04 03:47:09;;;;;;;9.60;4.45;;;;;;;;;;5049454;28;20037;-59
2024/01/04 03:49:35;;;;;;;10.40;4.05;;;;;;;;;;5051213;28;20036;-57
2024/01/04 03:52:01;;;;;;;12.13;4.88;;;;;;;;;;5047176;28;20051;-60
2024/01/04 03:54:27;;;;;;;9.32;4.32;;;;;;;;;;5051387;28;20131;-60
2024/01/04 03:56:53;;;;;;;11.93;4.60;;;;;;;;;;5049045;28;20029;-60
2024/01/04 03:59:19;;;;;;;9.07;4.28;;;;;;;;;;5043954;28;20040;-59
2024/01/04 04:01:47;;;;;;;10.07;4.65;;;;;;;;;;5049389;28;20034;-60
2024/01/04 04:04:12;;;;;;;7.60;4.38;;;;;;;;;;5039458;28;20029;-59
2024/01/04 04:06:38;;;;;;;9.20;4.50;;;;;;;;;;5033523;28;20033;-60
2024/01/04 04:09:04;;;;;;;10.18;5.40;;;;;;;;;;5049388;28;20033;-59
2024/01/04 04:11:30;;;;;;;7.93;3.92;;;;;;;;;;5048866;28;20033;-60
2024/01/04 04:13:55;;;;;;;9.98;3.95;;;;;;;;;;5050173;28;20064;-60
2024/01/04 04:16:20;;;;;;;8.65;3.85;;;;;;;;;;5052167;28;20397;-59
2024/01/04 04:18:46;;;;;;;9.32;4.03;;;;;;;;;;5052718;28;20115;-59
2024/01/04 04:21:21;;;;;;;5.55;2.80;;;;;;;;;;5042004;28;20034;-59
2024/01/04 04:23:49;;;;;;;7.15;2.30;;;;;;;;;;5035653;28;20065;-60
2024/01/04 04:26:21;;;;;;;6.90;2.17;;;;;;;;;;5054141;28;20056;-60
2024/01/04 04:28:50;;;;;;;5.20;2.00;;;;;;;;;;5053895;28;20039;-60
2024/01/04 04:31:17;;;;;;;5.97;2.00;;;;;;;;;;5054425;28;20063;-60
2024/01/04 04:33:47;;;;;;;3.80;1.67;;;;;;;;;;5054190;28;20401;-59
2024/01/04 04:36:13;;;;;;;4.45;1.60;;;;;;;;;;5053578;28;20515;-60
2024/01/04 04:38:38;;;;;;;5.55;1.63;;;;;;;;;;5053364;28;20051;-60
2024/01/04 04:41:05;;;;;;;5.78;1.70;;;;;;;;;;5053325;28;20517;-60
2024/01/04 04:43:31;;;;;;;3.33;1.52;;;;;;;;;;5053913;28;20067;-60
2024/01/04 04:45:57;;;;;;;5.28;2.13;;;;;;;;;;5051910;28;20117;-60
2024/01/04 04:48:22;;;;;;;3.13;1.58;;;;;;;;;;5051239;28;20474;-60
2024/01/04 04:50:48;;;;;;;2.33;1.30;;;;;;;;;;5047202;28;20052;-60
2024/01/04 04:53:14;;;;;;;7.93;1.58;;;;;;;;;;5049460;28;20031;-59
2024/01/04 04:55:40;;;;;;;3.85;1.45;;;;;;;;;;5051368;28;20024;-60
2024/01/04 04:58:05;;;;;;;4.13;1.58;;;;;;;;;;5051178;28;20520;-60
2024/01/04 05:00:30;;;;;;;4.72;1.60;;;;;;;;;;5053594;28;20507;-60
2024/01/04 05:02:56;;;;;;;2.08;1.40;;;;;;;;;;5051958;28;20090;-60
2024/01/04 05:05:21;;;;;;;4.18;1.25;;;;;;;;;;5046229;28;20037;-60
2024/01/04 05:07:46;;;;;;;4.13;1.50;;;;;;;;;;5035432;28;20040;-60
2024/01/04 05:10:12;;;;;;;5.72;1.50;;;;;;;;;;5051400;28;20134;-59
2024/01/04 05:12:37;;;;;;;4.90;1.30;;;;;;;;;;5052447;28;20039;-60
2024/01/04 05:15:03;;;;;;;3.70;1.30;;;;;;;;;;5051283;28;20041;-60
2024/01/04 05:17:29;;;;;;;3.17;1.27;;;;;;;;;;5052135;28;20033;-60
2024/01/04 05:19:54;;;;;;;3.90;1.60;;;;;;;;;;5033342;28;20063;-60
2024/01/04 05:22:20;;;;;;;4.15;1.70;;;;;;;;;;5051237;28;20112;-60
2024/01/04 05:24:46;;;;;;;4.20;1.50;;;;;;;;;;5051116;28;20049;-60
2024/01/04 05:27:11;;;;;;;4.32;1.70;;;;;;;;;;5051141;28;20035;-61
2024/01/04 05:29:37;;;;;;;3.75;1.42;;;;;;;;;;5053577;28;20025;-61
2024/01/04 05:32:02;;;;;;;6.32;1.58;;;;;;;;;;5050657;28;20037;-61
2024/01/04 05:34:32;;;;;;;6.07;1.60;;;;;;;;;;5044670;28;20045;-60
2024/01/04 05:36:57;;;;;;;4.25;1.55;;;;;;;;;;5038902;28;20056;-60
2024/01/04 05:39:24;;;;;;;3.25;1.50;;;;;;;;;;5051906;28;20072;-60
2024/01/04 05:41:50;;;;;;;3.55;1.10;;;;;;;;;;5052841;28;20033;-60
2024/01/04 05:44:15;;;;;;;2.40;1.20;;;;;;;;;;5034641;28;20028;-59
2024/01/04 05:46:41;;;;;;;1.73;1.40;;;;;;;;;;5052853;28;20036;-60
2024/01/04 05:49:06;;;;;;;3.10;1.30;;;;;;;;;;5050794;28;20493;-60
2024/01/04 05:51:31;;;;;;;3.83;1.30;;;;;;;;;;5043069;28;20033;-60
2024/01/04 05:53:57;;;;;;;3.85;1.70;;;;;;;;;;5031904;28;20112;-59
2024/01/04 05:56:22;;;;;;;3.00;1.50;;;;;;;;;;5032986;28;20036;-59
2024/01/04 05:58:48;;;;;;;2.53;1.50;;;;;;;;;;5032929;28;20029;-59
2024/01/04 06:01:14;;;;;;;2.78;1.48;;;;;;;;;;5041766;28;20037;-58
2024/01/04 06:03:40;;;;;;;2.50;1.48;;;;;;;;;;5052142;28;20108;-59
2024/01/04 06:06:05;;;;;;;3.28;1.38;;;;;;;;;;5051822;28;20107;-59
2024/01/04 06:08:30;;;;;;;4.25;1.50;;;;;;;;;;5052688;28;20067;-59
2024/01/04 06:10:56;;;;;;;3.10;1.23;;;;;;;;;;5036825;28;20370;-60
2024/01/04 06:13:26;;;;;;;1.95;1.05;;;;;;;;;;5042577;28;20110;-59
2024/01/04 06:15:52;;;;;;;2.85;1.40;;;;;;;;;;5052400;28;20029;-59
2024/01/04 06:18:17;;;;;;;3.47;1.70;;;;;;;;;;5051017;28;20091;-60
2024/01/04 06:20:43;;;;;;;3.75;1.55;;;;;;;;;;5051770;28;20444;-60
2024/01/04 06:23:08;;;;;;;4.43;1.92;;;;;;;;;;5050163;28;20055;-58
2024/01/04 06:25:34;;;;;;;4.97;1.80;;;;;;;;;;5045218;28;20045;-59
2024/01/04 06:27:59;;;;;;;4.60;2.03;;;;;;;;;;5050365;28;20025;-60
2024/01/04 06:30:25;;;;;;;4.78;2.00;;;;;;;;;;5051713;28;20029;-59
2024/01/04 06:32:50;;;;;;;4.57;2.17;;;;;;;;;;5049316;28;20033;-60
2024/01/04 06:35:15;;;;;;;5.32;2.00;;;;;;;;;;5051444;28;20489;-60
2024/01/04 06:37:41;;;;;;;5.68;2.20;;;;;;;;;;5050820;28;20032;-60
2024/01/04 06:40:08;;;;;;;4.78;2.10;;;;;;;;;;5042994;28;20534;-62
2024/01/04 06:42:36;;;;;;;5.95;3.45;;;;;;;;;;5038164;28;20034;-62
2024/01/04 06:45:04;;;;;;;6.57;2.70;;;;;;;;;;5041292;28;20067;-61
2024/01/04 06:47:29;;;;;;;3.95;2.47;;;;;;;;;;5042897;28;20044;-61
2024/01/04 06:49:54;;;;;;;3.33;2.17;;;;;;;;;;5046999;28;20029;-61
2024/01/04 06:52:20;;;;;;;4.20;2.45;;;;;;;;;;5030563;28;20055;-61
2024/01/04 06:54:45;;;;;;;5.93;2.35;;;;;;;;;;5037794;28;20445;-62
2024/01/04 06:57:10;;;;;;;3.88;2.20;;;;;;;;;;5032824;28;20082;-61
2024/01/04 06:59:36;;;;;;;4.30;2.38;;;;;;;;;;5050828;28;20469;-61
2024/01/04 07:02:04;;;;;;;3.05;2.00;;;;;;;;;;5050560;28;20032;-61
2024/01/04 07:04:29;;;;;;;4.38;2.05;;;;;;;;;;5049025;28;20037;-61
2024/01/04 07:06:55;;;;;;;4.93;2.13;;;;;;;;;;5020503;28;20058;-61
2024/01/04 07:09:20;;;;;;;4.35;1.92;;;;;;;;;;5049527;28;20483;-61
2024/01/04 07:11:45;;;;;;;6.57;2.53;;;;;;;;;;5050042;28;20037;-61
2024/01/04 07:14:11;;;;;;;5.65;2.65;;;;;;;;;;5049899;28;20025;-61
2024/01/04 07:16:46;;;;;;;7.78;2.60;;;;;;;;;;5051054;28;20395;-60
2024/01/04 07:19:12;;;;;;;4.03;2.47;;;;;;;;;;5049880;28;20171;-60
2024/01/04 07:21:40;;;;;;;3.42;1.85;;;;;;;;;;5050409;28;20517;-60
2024/01/04 07:24:05;;;;;;;6.82;2.03;;;;;;;;;;5049899;28;20165;-60
2024/01/04 07:26:31;;;;;;;4.20;2.00;;;;;;;;;;5049199;28;20099;-60
2024/01/04 07:28:56;;;;;;;2.55;1.58;;;;;;;;;;5028120;28;20036;-60
2024/01/04 07:31:22;;;;;;;4.15;1.85;;;;;;;;;;5049632;28;20040;-60
2024/01/04 07:33:47;;;;;;;1.98;1.52;;;;;;;;;;5019648;28;20025;-60
2024/01/04 07:36:14;;;;;;;2.50;1.60;;;;;;;;;;5036118;28;20069;-60
2024/01/04 07:38:40;;;;;;;2.20;1.60;;;;;;;;;;5013667;28;20037;-60
2024/01/04 07:41:05;;;;;;;3.30;1.90;;;;;;;;;;5037875;28;20410;-60
2024/01/04 07:43:30;;;;;;;5.72;1.70;;;;;;;;;;5050411;28;20040;-60
2024/01/04 07:45:56;;;;;;;3.50;1.92;;;;;;;;;;5043345;28;20043;-60
2024/01/04 07:48:21;;;;;;;4.65;2.00;;;;;;;;;;5050496;28;20381;-60
2024/01/04 07:50:47;;;;;;;3.97;2.30;;;;;;;;;;5055033;28;20028;-60
2024/01/04 07:53:12;;;;;;;3.38;1.90;;;;;;;;;;5053839;28;20037;-60
2024/01/04 07:55:38;;;;;;;3.15;1.98;;;;;;;;;;5054445;28;20133;-59
2024/01/04 07:58:03;;;;;;;4.28;1.90;;;;;;;;;;5035581;28;20052;-61
2024/01/04 08:00:29;;;;;;;5.53;2.08;;;;;;;;;;5054378;28;20033;-60
2024/01/04 08:02:54;;;;;;;4.10;2.00;;;;;;;;;;5054367;28;20029;-60
2024/01/04 08:05:19;;;;;;;4.38;2.10;;;;;;;;;;5053276;28;20464;-60
2024/01/04 08:07:45;;;;;;;4.47;2.17;;;;;;;;;;5054251;28;20098;-60
2024/01/04 08:10:11;;;;;;;3.45;2.20;;;;;;;;;;5053640;28;20123;-60
2024/01/04 08:12:40;;;;;;;3.40;1.98;;;;;;;;;;5052660;28;20039;-60
2024/01/04 08:15:07;;;;;;;5.13;2.15;;;;;;;;;;5053161;28;20032;-60
2024/01/04 08:17:32;;;;;;;3.80;2.03;;;;;;;;;;5054102;28;20354;-60
2024/01/04 08:19:58;;;;;;;3.88;1.90;;;;;;;;;;5054155;28;20055;-60
2024/01/04 08:22:23;;;;;;;5.05;2.05;;;;;;;;;;5047001;28;20041;-60
2024/01/04 08:24:49;;;;;;;2.88;1.80;;;;;;;;;;5034166;28;20052;-60
2024/01/04 08:27:18;;;;;;;4.40;2.40;;;;;;;;;;5039935;28;20029;-59
2024/01/04 08:29:48;;;;;;;4.88;2.45;;;;;;;;;;5054145;28;20029;-60
2024/01/04 08:32:14;;;;;;;5.15;2.00;;;;;;;;;;5053327;28;20527;-60
2024/01/04 08:34:39;;;;;;;3.55;2.13;;;;;;;;;;5053915;28;20041;-60
2024/01/04 08:37:04;;;;;;;4.05;2.20;;;;;;;;;;5049805;28;20037;-60
2024/01/04 08:39:31;;;;;;;3.38;2.30;;;;;;;;;;5034153;28;20462;-59
2024/01/04 08:41:57;;;;;;;3.42;2.30;;;;;;;;;;5043568;28;20389;-61
2024/01/04 08:44:22;;;;;;;4.10;2.25;;;;;;;;;;5052679;28;20029;-60
2024/01/04 08:46:50;;;;;;;4.65;2.28;;;;;;;;;;5053753;28;20033;-59
2024/01/04 08:49:15;;;;;;;5.82;2.40;;;;;;;;;;5052548;28;20076;-60
2024/01/04 08:51:41;;;;;;;6.28;2.25;;;;;;;;;;5053647;28;20036;-60
2024/01/04 08:54:06;;;;;;;5.68;2.47;;;;;;;;;;5052612;28;20120;-60
2024/01/04 08:56:32;;;;;;;4.20;2.22;;;;;;;;;;5053360;28;20036;-59
2024/01/04 08:58:57;;;;;;;4.40;2.65;;;;;;;;;;5042156;28;20112;-60
2024/01/04 09:01:23;;;;;;;4.05;2.13;;;;;;;;;;5051513;28;20128;-59
2024/01/04 09:03:49;;;;;;;6.63;2.58;;;;;;;;;;5053400;28;20461;-59
2024/01/04 09:06:14;;;;;;;4.82;2.72;;;;;;;;;;5052574;28;20037;-60
2024/01/04 09:08:39;;;;;;;5.70;2.90;;;;;;;;;;5038455;28;20033;-60
2024/01/04 09:11:06;;;;;;;6.28;3.30;;;;;;;;;;5042834;28;20385;-61
2024/01/04 09:13:31;;;;;;;7.70;3.03;;;;;;;;;;5053234;28;20132;-62
2024/01/04 09:15:58;;;;;;;7.40;3.50;;;;;;;;;;5052982;28;20116;-60
2024/01/04 09:18:23;;;;;;;8.35;3.65;;;;;;;;;;5047448;28;20111;-60
2024/01/04 09:20:49;;;;;;;4.85;2.42;;;;;;;;;;5053446;28;20557;-60
2024/01/04 09:23:14;;;;;;;4.32;2.72;;;;;;;;;;5052215;28;20112;-61
2024/01/04 09:25:39;;;;;;;4.30;2.50;;;;;;;;;;5052781;28;20033;-59
2024/01/04 09:28:05;;;;;;;3.60;2.25;;;;;;;;;;5041915;28;20095;-60
2024/01/04 09:30:30;;;;;;;4.72;2.10;;;;;;;;;;5034989;28;20021;-60
2024/01/04 09:32:57;;;;;;;2.75;1.90;;;;;;;;;;5052252;28;20063;-60
2024/01/04 09:35:23;;;;;;;5.30;2.03;;;;;;;;;;5051794;28;20155;-61
2024/01/04 09:37:52;;;;;;;3.00;1.75;;;;;;;;;;5048366;28;20037;-60
2024/01/04 09:40:21;;;;;;;2.92;1.95;;;;;;;;;;5052069;28;20036;-59
2024/01/04 09:42:48;;;;;;;3.10;1.92;;;;;;;;;;5046972;28;20026;-59
2024/01/04 09:45:18;;;;;;;2.42;1.55;;;;;;;;;;5051905;28;20119;-60
2024/01/04 09:47:45;;;;;;;4.47;1.90;;;;;;;;;;5037562;28;20100;-60
2024/01/04 09:50:12;;;;;;;4.55;1.90;;;;;;;;;;5051652;28;20039;-59
2024/01/04 09:52:39;;;;;;;4.85;2.10;;;;;;;;;;5034303;28;20366;-60
2024/01/04 09:55:07;;;;;;;4.22;2.17;;;;;;;;;;5051351;28;20389;-61
2024/01/04 09:57:33;;;;;;;3.13;1.90;;;;;;;;;;5051995;28;20458;-60
2024/01/04 09:59:59;;;;;;;4.88;2.10;;;;;;;;;;5052266;28;20063;-60
2024/01/04 10:02:24;;;;;;;6.13;2.20;;;;;;;;;;5051285;28;20363;-62
2024/01/04 10:04:51;;;;;;;4.57;1.95;;;;;;;;;;5052489;28;20040;-62
2024/01/04 10:07:22;;;;;;;5.55;2.17;;;;;;;;;;5051371;28;20032;-62
2024/01/04 10:10:13;;;;;;;3.88;2.45;;;;;;;;;;5042618;28;20025;-62
2024/01/04 10:12:42;;;;;;;5.32;2.67;;;;;;;;;;5042798;28;20049;-62
2024/01/04 10:15:11;;;;;;;6.88;2.70;;;;;;;;;;5051142;28;20041;-61
2024/01/04 10:17:37;;;;;;;7.40;3.00;;;;;;;;;;5051863;28;20108;-60
2024/01/04 10:20:04;;;;;;;4.00;2.67;;;;;;;;;;5051485;28;20041;-60
2024/01/04 10:22:30;;;;;;;6.97;3.17;;;;;;;;;;5051423;28;20078;-60
2024/01/04 10:25:09;;;;;;;4.40;2.53;;;;;;;;;;5051232;28;20432;-60
2024/01/04 10:27:34;;;;;;;6.10;2.40;;;;;;;;;;5050472;28;20036;-59
2024/01/04 10:30:05;;;;;;;3.65;2.22;;;;;;;;;;5051266;28;20377;-60
2024/01/04 10:32:30;;;;;;;3.95;2.40;;;;;;;;;;5017349;28;20033;-60
2024/01/04 10:35:08;;;;;;;6.20;2.35;;;;;;;;;;5051160;28;20394;-62
2024/01/04 10:37:34;;;;;;;4.50;2.10;;;;;;;;;;5050882;28;20029;-60
2024/01/04 10:40:03;;;;;;;7.40;2.55;;;;;;;;;;5051102;28;20469;-60
2024/01/04 10:42:29;;;;;;;4.72;2.55;;;;;;;;;;5032761;28;20124;-60
2024/01/04 10:44:55;;;;;;;4.78;3.03;;;;;;;;;;5051811;28;20043;-59
2024/01/04 10:47:21;;;;;;;5.68;3.15;;;;;;;;;;5050483;28;20037;-60
2024/01/04 10:49:48;;;;;;;5.90;3.53;;;;;;;;;;5033937;28;20029;-61
2024/01/04 10:52:15;;;;;;;8.40;3.80;;;;;;;;;;5050776;28;20036;-60
2024/01/04 10:54:41;;;;;;;6.38;4.00;;;;;;;;;;5051432;28;20044;-61
2024/01/04 10:57:08;;;;;;;8.45;4.05;;;;;;;;;;5050854;28;20056;-60
2024/01/04 10:59:34;;;;;;;8.18;4.25;;;;;;;;;;5050798;28;20029;-60
2024/01/04 11:02:00;;;;;;;8.68;4.78;;;;;;;;;;5051096;28;20040;-59
2024/01/04 11:04:27;;;;;;;8.05;4.82;;;;;;;;;;5050813;28;20644;-60
2024/01/04 11:06:53;;;;;;;8.05;4.82;;;;;;;;;;5050979;28;20037;-59
2024/01/04 11:09:20;;;;;;;9.35;5.30;;;;;;;;;;5044847;28;20048;-62
2024/01/04 11:11:48;;;;;;;8.65;4.88;;;;;;;;;;5048863;28;20112;-61
2024/01/04 11:14:14;;;;;;;11.77;5.35;;;;;;;;;;5050638;28;20022;-64
2024/01/04 11:16:45;;;;;;;7.88;4.63;;;;;;;;;;5041587;28;20033;-61
2024/01/04 11:19:35;;;;;;;9.88;4.60;;;;;;;;;;5050389;28;20029;-61
2024/01/04 11:22:29;;;;;;;8.15;4.40;;;;;;;;;;5042330;28;20029;-60
2024/01/04 11:25:08;;;;;;;8.10;3.78;;;;;;;;;;5053717;28;20056;-60
2024/01/04 11:27:34;;;;;;;7.90;3.53;;;;;;;;;;5053631;28;20056;-60
2024/01/04 11:30:01;;;;;;;6.78;3.63;;;;;;;;;;5055411;28;20091;-61
2024/01/04 11:32:29;;;;;;;8.85;3.42;;;;;;;;;;5054257;28;20043;-61
2024/01/04 11:34:55;;;;;;;8.40;3.50;;;;;;;;;;5055086;28;20070;-60
2024/01/04 11:37:21;;;;;;;7.60;3.00;;;;;;;;;;5035827;28;20124;-62
2024/01/04 11:39:53;;;;;;;5.70;3.00;;;;;;;;;;5054968;28;20516;-62
2024/01/04 11:42:19;;;;;;;6.75;3.30;;;;;;;;;;5053971;28;20040;-61
2024/01/04 11:44:51;;;;;;;8.07;4.07;;;;;;;;;;5055145;28;20037;-62
2024/01/04 11:47:24;;;;;;;9.20;4.60;;;;;;;;;;5052466;28;20029;-61
2024/01/04 11:49:49;;;;;;;7.13;4.63;;;;;;;;;;5055028;28;20040;-60
2024/01/04 11:52:17;;;;;;;9.15;5.30;;;;;;;;;;5054265;28;20068;-62
2024/01/04 11:54:43;;;;;;;9.00;5.40;;;;;;;;;;5054785;28;20033;-61
2024/01/04 11:57:18;;;;;;;8.63;5.30;;;;;;;;;;5053537;28;20366;-62
2024/01/04 11:59:44;;;;;;;9.32;5.68;;;;;;;;;;5054525;28;20036;-61
2024/01/04 12:02:20;;;;;;;11.10;5.72;;;;;;;;;;5053410;28;20044;-62
2024/01/04 12:04:46;;;;;;;9.05;5.43;;;;;;;;;;5054656;28;20043;-60
2024/01/04 12:07:12;;;;;;;10.25;5.80;;;;;;;;;;5049218;28;20029;-61
2024/01/04 12:09:39;;;;;;;8.85;5.05;;;;;;;;;;5046732;28;20045;-61
2024/01/04 12:12:05;;;;;;;9.82;5.35;;;;;;;;;;5049884;28;20025;-60
2024/01/04 12:14:33;;;;;;;9.90;5.00;;;;;;;;;;5036064;28;20139;-61
2024/01/04 12:16:59;;;;;;;11.63;5.55;;;;;;;;;;5053188;28;20037;-60
2024/01/04 12:19:24;;;;;;;11.23;5.53;;;;;;;;;;5045389;28;20444;-60
2024/01/04 12:21:50;;;;;;;9.35;5.38;;;;;;;;;;5045782;28;20034;-59
2024/01/04 12:24:15;;;;;;;8.63;4.82;;;;;;;;;;5033161;28;20041;-60
2024/01/04 12:26:41;;;;;;;9.07;4.05;;;;;;;;;;5050842;28;20092;-60
2024/01/04 12:29:08;;;;;;;8.05;4.13;;;;;;;;;;5054106;28;20323;-60
2024/01/04 12:31:34;;;;;;;12.48;5.20;;;;;;;;;;5052686;28;20032;-59
2024/01/04 12:34:00;;;;;;;9.18;4.45;;;;;;;;;;5041808;28;20077;-60
2024/01/04 12:36:25;;;;;;;9.43;5.82;;;;;;;;;;5053028;28;20040;-59
2024/01/04 12:38:52;;;;;;;11.02;5.32;;;;;;;;;;5053879;28;20032;-59
2024/01/04 12:41:29;;;;;;;9.23;4.90;;;;;;;;;;5052836;28;20376;-60
2024/01/04 12:43:56;;;;;;;8.35;4.93;;;;;;;;;;5053966;28;20067;-62
2024/01/04 12:46:22;;;;;;;9.65;4.63;;;;;;;;;;5050634;28;20044;-61
2024/01/04 12:48:48;;;;;;;7.30;4.03;;;;;;;;;;5039166;28;20048;-61
2024/01/04 12:51:16;;;;;;;6.78;4.28;;;;;;;;;;5040970;28;20025;-62
2024/01/04 12:53:42;;;;;;;8.05;4.60;;;;;;;;;;5053605;28;20031;-61
2024/01/04 12:56:12;;;;;;;7.57;3.85;;;;;;;;;;5052922;28;20033;-65
2024/01/04 12:58:37;;;;;;;6.47;3.95;;;;;;;;;;5033276;28;20052;-63
2024/01/04 13:01:03;;;;;;;6.30;3.40;;;;;;;;;;5035040;28;20060;-63
2024/01/04 13:03:28;;;;;;;6.45;3.25;;;;;;;;;;5033015;28;20075;-62
2024/01/04 13:05:54;;;;;;;5.72;3.28;;;;;;;;;;5053540;28;20060;-63
2024/01/04 13:08:19;;;;;;;6.53;2.97;;;;;;;;;;5034292;28;20037;-63
2024/01/04 13:10:44;;;;;;;7.75;3.10;;;;;;;;;;5033283;28;20025;-63
2024/01/04 13:13:10;;;;;;;5.15;3.35;;;;;;;;;;5033857;28;20487;-63
2024/01/04 13:15:35;;;;;;;6.35;3.10;;;;;;;;;;5041815;28;20037;-62
2024/01/04 13:18:00;;;;;;;5.35;2.85;;;;;;;;;;5052854;28;20033;-62
2024/01/04 13:20:26;;;;;;;4.15;2.75;;;;;;;;;;5052402;28;20036;-63
2024/01/04 13:22:51;;;;;;;5.07;2.50;;;;;;;;;;5052865;28;20108;-63
2024/01/04 13:25:17;;;;;;;5.03;3.47;;;;;;;;;;5052218;28;20405;-63
2024/01/04 13:27:42;;;;;;;5.95;3.28;;;;;;;;;;5052474;28;20029;-62
2024/01/04 13:30:12;;;;;;;7.20;4.00;;;;;;;;;;5052112;28;20025;-62
2024/01/04 13:32:38;;;;;;;5.13;3.20;;;;;;;;;;5052178;28;20037;-62
2024/01/04 13:35:04;;;;;;;5.68;3.65;;;;;;;;;;5052343;28;20358;-62
2024/01/04 13:37:29;;;;;;;6.70;3.17;;;;;;;;;;5042148;28;20041;-62
2024/01/04 13:39:55;;;;;;;7.25;3.60;;;;;;;;;;5032594;28;20036;-61
2024/01/04 13:42:21;;;;;;;7.55;3.13;;;;;;;;;;5032456;28;20124;-63
2024/01/04 13:44:46;;;;;;;6.07;3.45;;;;;;;;;;5016484;28;20033;-62
2024/01/04 13:47:12;;;;;;;6.47;3.58;;;;;;;;;;5039073;28;20461;-62
2024/01/04 13:49:39;;;;;;;6.10;3.35;;;;;;;;;;5051195;28;20041;-62
2024/01/04 13:52:06;;;;;;;10.35;3.67;;;;;;;;;;5052385;28;20466;-63
2024/01/04 13:54:31;;;;;;;7.30;3.63;;;;;;;;;;5051767;28;20060;-62
2024/01/04 13:56:57;;;;;;;7.95;3.53;;;;;;;;;;5052408;28;20118;-62
2024/01/04 13:59:29;;;;;;;6.50;3.40;;;;;;;;;;5051458;28;20025;-63
2024/01/04 14:01:55;;;;;;;3.97;2.25;;;;;;;;;;5052395;28;20052;-62
2024/01/04 14:04:21;;;;;;;5.55;2.97;;;;;;;;;;5051896;28;20040;-63
2024/01/04 14:06:47;;;;;;;5.22;2.55;;;;;;;;;;5050233;28;20037;-63
2024/01/04 14:09:12;;;;;;;6.70;2.78;;;;;;;;;;5032412;28;20030;-62
2024/01/04 14:11:37;;;;;;;6.03;2.92;;;;;;;;;;5031581;28;20158;-62
2024/01/04 14:14:03;;;;;;;4.60;2.60;;;;;;;;;;5037322;28;20021;-62
2024/01/04 14:16:28;;;;;;;6.90;2.63;;;;;;;;;;5051522;28;20028;-62
2024/01/04 14:18:54;;;;;;;4.07;2.38;;;;;;;;;;5051967;28;20044;-62
2024/01/04 14:21:19;;;;;;;5.45;2.47;;;;;;;;;;5051511;28;20452;-62
2024/01/04 14:23:45;;;;;;;6.65;2.40;;;;;;;;;;5051794;28;20464;-62
2024/01/04 14:26:10;;;;;;;4.88;2.30;;;;;;;;;;5052294;28;20032;-62
2024/01/04 14:28:38;;;;;;;3.08;2.20;;;;;;;;;;5048930;28;20052;-63
2024/01/04 14:31:05;;;;;;;3.97;2.20;;;;;;;;;;5048655;28;20036;-62
2024/01/04 14:33:30;;;;;;;4.50;2.30;;;;;;;;;;5050934;28;20037;-62
2024/01/04 14:35:56;;;;;;;3.60;2.20;;;;;;;;;;5051862;28;20027;-62